createdAt,value
2022-08-17T00:00:01.133Z,24.92
2022-08-17T00:02:28.098Z,27.17
2022-08-17T00:04:55.644Z,26.30
2022-08-17T00:07:23.023Z,27.23
2022-08-17T00:09:50.471Z,28.90
2022-08-17T00:12:43.379Z,28.27
2022-08-17T00:15:10.519Z,24.58
2022-08-17T00:17:38.216Z,24.05
2022-08-17T00:20:06.398Z,26.25
2022-08-17T00:22:36.445Z,26.63
2022-08-17T00:25:12.113Z,26.52
2022-08-17T00:27:39.381Z,26.77
2022-08-17T00:30:08.985Z,24.42
2022-08-17T00:33:13.838Z,28.58
2022-08-17T00:35:35.551Z,28.38
2022-08-17T00:38:04.986Z,33.15
2022-08-17T00:40:44.200Z,32.13
2022-08-17T00:43:54.504Z,30.65
2022-08-17T00:46:30.944Z,27.85
2022-08-17T00:49:00.371Z,29.33
2022-08-17T00:51:29.987Z,31.60
2022-08-17T00:54:17.295Z,29.05
2022-08-17T00:56:48.867Z,28.65
2022-08-17T00:59:21.919Z,26.08
2022-08-17T01:01:50.224Z,28.67
2022-08-17T01:04:20.153Z,28.10
2022-08-17T01:06:49.420Z,28.33
2022-08-17T01:09:17.855Z,30.08
2022-08-17T01:11:49.258Z,29.02
2022-08-17T01:14:16.154Z,30.92
2022-08-17T01:16:43.077Z,29.10
2022-08-17T01:19:20.280Z,29.38
2022-08-17T01:22:07.569Z,29.33
2022-08-17T01:24:36.401Z,32.08
2022-08-17T01:27:10.459Z,24.17
2022-08-17T01:29:47.099Z,32.75
2022-08-17T01:32:14.021Z,28.25
2022-08-17T01:34:43.599Z,29.45
2022-08-17T01:37:13.158Z,32.45
2022-08-17T01:39:52.479Z,30.55
2022-08-17T01:42:48.378Z,26.58
2022-08-17T01:45:23.542Z,28.50
2022-08-17T01:47:51.419Z,24.35
2022-08-17T01:50:22.961Z,29.40
2022-08-17T01:52:54.107Z,29.23
2022-08-17T01:55:27.509Z,27.42
2022-08-17T01:57:54.500Z,29.33
2022-08-17T02:00:21.715Z,30.27
2022-08-17T02:02:48.644Z,30.10
2022-08-17T02:05:17.380Z,31.00
2022-08-17T02:07:59.752Z,31.23
2022-08-17T02:10:33.992Z,28.95
2022-08-17T02:13:03.334Z,27.38
2022-08-17T02:15:30.617Z,26.20
2022-08-17T02:17:57.420Z,28.60
2022-08-17T02:20:42.480Z,29.02
2022-08-17T02:23:12.611Z,29.02
2022-08-17T02:25:43.385Z,29.38
2022-08-17T02:28:11.249Z,29.35
2022-08-17T02:31:01.048Z,26.95
2022-08-17T02:33:42.449Z,25.70
2022-08-17T02:36:12.910Z,27.23
2022-08-17T02:38:41.170Z,28.88
2022-08-17T02:41:08.674Z,24.58
2022-08-17T02:43:36.748Z,26.88
2022-08-17T02:46:03.782Z,28.07
2022-08-17T02:48:32.066Z,26.50
2022-08-17T02:51:00.697Z,28.55
2022-08-17T02:53:29.769Z,27.30
2022-08-17T02:56:03.807Z,24.25
2022-08-17T02:58:35.567Z,28.90
2022-08-17T03:01:05.538Z,30.25
2022-08-17T03:03:32.412Z,27.17
2022-08-17T03:05:59.288Z,27.35
2022-08-17T03:08:26.668Z,27.42
2022-08-17T03:10:54.063Z,26.05
2022-08-17T03:13:22.513Z,25.08
2022-08-17T03:15:50.548Z,27.60
2022-08-17T03:18:25.469Z,24.57
2022-08-17T03:20:59.132Z,31.23
2022-08-17T03:23:27.478Z,27.52
2022-08-17T03:25:55.786Z,27.05
2022-08-17T03:28:25.059Z,29.48
2022-08-17T03:30:52.223Z,27.92
2022-08-17T03:33:19.957Z,28.52
2022-08-17T03:35:47.039Z,23.80
2022-08-17T03:38:17.011Z,28.30
2022-08-17T03:40:57.161Z,30.73
2022-08-17T03:43:30.118Z,26.55
2022-08-17T03:46:34.742Z,29.88
2022-08-17T03:49:26.027Z,28.90
2022-08-17T03:52:13.909Z,29.90
2022-08-17T03:55:00.763Z,30.45
2022-08-17T03:57:27.901Z,29.33
2022-08-17T03:59:55.303Z,29.95
2022-08-17T04:02:26.912Z,29.63
2022-08-17T04:04:54.254Z,26.75
2022-08-17T04:07:24.283Z,30.55
2022-08-17T04:09:51.267Z,29.73
2022-08-17T04:12:20.247Z,30.20
2022-08-17T04:17:28.598Z,28.40
2022-08-17T04:19:55.785Z,27.92
2022-08-17T04:22:30.997Z,30.58
2022-08-17T04:25:04.398Z,29.95
2022-08-17T04:27:31.416Z,28.67
2022-08-17T04:29:58.693Z,30.02
2022-08-17T04:33:04.668Z,30.27
2022-08-17T04:35:21.630Z,27.00
2022-08-17T04:37:48.612Z,28.58
2022-08-17T04:40:33.996Z,32.47
2022-08-17T04:43:18.799Z,32.67
2022-08-17T04:45:55.111Z,24.40
2022-08-17T04:48:36.420Z,29.83
2022-08-17T04:51:31.793Z,30.27
2022-08-17T04:54:01.902Z,31.05
2022-08-17T04:56:30.365Z,30.15
2022-08-17T04:59:03.422Z,28.67
2022-08-17T05:01:33.231Z,30.42
2022-08-17T05:04:21.016Z,28.55
2022-08-17T05:06:52.305Z,30.42
2022-08-17T05:09:19.399Z,29.55
2022-08-17T05:11:46.658Z,28.90
2022-08-17T05:14:14.562Z,24.23
2022-08-17T05:16:41.505Z,24.10
2022-08-17T05:19:08.433Z,30.15
2022-08-17T05:21:35.288Z,34.75
2022-08-17T05:24:03.725Z,30.83
2022-08-17T05:26:36.551Z,30.42
2022-08-17T05:29:04.683Z,30.10
2022-08-17T05:31:31.707Z,31.17
2022-08-17T05:33:59.012Z,34.08
2022-08-17T05:36:42.267Z,31.30
2022-08-17T05:39:16.564Z,27.48
2022-08-17T05:41:45.701Z,30.90
2022-08-17T05:44:12.607Z,29.30
2022-08-17T05:46:43.796Z,24.85
2022-08-17T05:49:11.894Z,33.42
2022-08-17T05:51:44.938Z,30.13
2022-08-17T05:54:45.870Z,32.15
2022-08-17T05:57:31.841Z,25.05
2022-08-17T06:00:22.135Z,32.72
2022-08-17T06:03:14.793Z,29.42
2022-08-17T06:05:55.300Z,29.73
2022-08-17T06:09:00.822Z,32.10
2022-08-17T06:11:27.691Z,24.15
2022-08-17T06:14:19.198Z,29.77
2022-08-17T06:16:51.012Z,32.47
2022-08-17T06:19:27.838Z,29.20
2022-08-17T06:21:55.934Z,30.65
2022-08-17T06:24:28.576Z,32.17
2022-08-17T06:27:07.024Z,25.98
2022-08-17T06:29:52.637Z,29.27
2022-08-17T06:32:19.632Z,29.35
2022-08-17T06:34:47.311Z,31.35
2022-08-17T06:37:32.581Z,25.67
2022-08-17T06:40:18.594Z,30.15
2022-08-17T06:43:26.959Z,30.40
2022-08-17T06:46:02.311Z,27.95
2022-08-17T06:48:42.720Z,29.85
2022-08-17T06:51:33.387Z,29.13
2022-08-17T06:54:10.371Z,25.90
2022-08-17T06:56:53.481Z,28.92
2022-08-17T06:59:36.304Z,26.60
2022-08-17T07:02:52.631Z,26.23
2022-08-17T07:05:51.376Z,26.90
2022-08-17T07:08:41.425Z,23.33
2022-08-17T07:11:14.301Z,25.08
2022-08-17T07:14:03.256Z,23.13
2022-08-17T07:16:46.796Z,28.02
2022-08-17T07:19:16.845Z,23.20
2022-08-17T07:22:14.003Z,23.65
2022-08-17T07:24:58.531Z,27.10
2022-08-17T07:27:28.494Z,22.23
2022-08-17T07:30:00.868Z,23.50
2022-08-17T07:32:31.769Z,22.20
2022-08-17T07:35:04.542Z,24.70
2022-08-17T07:37:33.389Z,23.23
2022-08-17T07:40:20.503Z,18.53
2022-08-17T07:43:21.783Z,19.85
2022-08-17T07:46:24.480Z,23.38
2022-08-17T07:48:55.173Z,21.88
2022-08-17T07:51:31.234Z,21.30
2022-08-17T07:54:22.837Z,22.05
2022-08-17T07:56:55.344Z,22.50
2022-08-17T07:59:34.749Z,20.80
2022-08-17T08:02:16.318Z,19.58
2022-08-17T08:05:00.720Z,20.67
2022-08-17T08:07:50.481Z,20.65
2022-08-17T08:10:45.330Z,20.55
2022-08-17T08:13:15.242Z,19.60
2022-08-17T08:15:54.105Z,20.30
2022-08-17T08:18:54.423Z,16.75
2022-08-17T08:21:37.923Z,19.60
2022-08-17T08:24:35.481Z,20.33
2022-08-17T08:27:30.833Z,18.38
2022-08-17T08:30:14.451Z,20.73
2022-08-17T08:33:23.307Z,20.85
2022-08-17T08:36:10.777Z,22.73
2022-08-17T08:38:58.613Z,18.15
2022-08-17T08:41:45.344Z,16.42
2022-08-17T08:45:00.282Z,17.50
2022-08-17T08:47:32.097Z,19.60
2022-08-17T08:50:38.208Z,19.35
2022-08-17T08:53:16.136Z,15.13
2022-08-17T08:55:42.964Z,19.02
2022-08-17T08:58:32.007Z,15.85
2022-08-17T09:01:17.052Z,18.65
2022-08-17T09:04:19.620Z,20.85
2022-08-17T09:07:04.385Z,21.50
2022-08-17T09:09:49.485Z,19.48
2022-08-17T09:12:57.849Z,19.60
2022-08-17T09:15:37.933Z,19.15
2022-08-17T09:19:01.132Z,18.25
2022-08-17T09:21:10.271Z,20.00
2022-08-17T09:24:00.218Z,19.58
2022-08-17T09:26:39.504Z,17.17
2022-08-17T09:29:11.298Z,19.35
2022-08-17T09:32:03.822Z,18.13
2022-08-17T09:34:39.919Z,19.98
2022-08-17T09:37:28.553Z,18.58
2022-08-17T09:40:02.243Z,17.10
2022-08-17T09:42:42.614Z,19.17
2022-08-17T09:45:51.171Z,17.90
2022-08-17T09:48:41.728Z,16.13
2022-08-17T09:51:23.033Z,19.20
2022-08-17T09:53:51.296Z,18.73
2022-08-17T09:56:32.129Z,17.92
2022-08-17T09:59:17.847Z,18.38
2022-08-17T10:01:55.574Z,19.85
2022-08-17T10:04:37.498Z,16.48
2022-08-17T10:07:14.787Z,19.60
2022-08-17T10:10:02.941Z,21.45
2022-08-17T10:12:45.170Z,18.35
2022-08-17T10:15:29.132Z,17.55
2022-08-17T10:18:14.368Z,16.80
2022-08-17T10:21:24.714Z,17.25
2022-08-17T10:24:18.429Z,18.38
2022-08-17T10:26:56.864Z,16.83
2022-08-17T10:29:47.376Z,17.90
2022-08-17T10:32:35.354Z,16.13
2022-08-17T10:35:27.354Z,16.00
2022-08-17T10:38:16.596Z,14.07
2022-08-17T10:41:00.827Z,15.05
2022-08-17T10:43:57.838Z,12.85
2022-08-17T10:46:48.398Z,14.18
2022-08-17T10:49:25.840Z,16.58
2022-08-17T10:51:55.348Z,13.77
2022-08-17T10:54:25.163Z,17.27
2022-08-17T10:56:54.280Z,15.63
2022-08-17T10:59:36.325Z,15.30
2022-08-17T11:02:12.321Z,16.65
2022-08-17T11:05:07.621Z,15.05
2022-08-17T11:08:15.857Z,16.10
2022-08-17T11:10:57.973Z,15.30
2022-08-17T11:13:35.402Z,17.48
2022-08-17T11:16:32.938Z,17.80
2022-08-17T11:19:18.732Z,17.60
2022-08-17T11:21:52.047Z,17.52
2022-08-17T11:24:36.551Z,17.73
2022-08-17T11:27:12.064Z,16.40
2022-08-17T11:29:56.864Z,20.70
2022-08-17T11:32:47.189Z,20.58
2022-08-17T11:35:20.435Z,19.65
2022-08-17T11:37:50.420Z,20.10
2022-08-17T11:40:41.350Z,19.85
2022-08-17T11:43:21.149Z,20.35
2022-08-17T11:46:56.052Z,21.23
2022-08-17T11:50:01.726Z,22.88
2022-08-17T11:52:45.013Z,21.50
2022-08-17T11:55:36.380Z,23.60
2022-08-17T11:58:30.152Z,21.75
2022-08-17T12:01:22.800Z,21.17
2022-08-17T12:03:56.082Z,21.55
2022-08-17T12:06:30.197Z,24.40
2022-08-17T12:09:02.720Z,24.08
2022-08-17T12:12:01.579Z,25.27
2022-08-17T12:15:05.872Z,23.15
2022-08-17T12:17:39.695Z,22.85
2022-08-17T12:20:14.721Z,23.52
2022-08-17T12:23:01.229Z,26.52
2022-08-17T12:25:40.783Z,27.48
2022-08-17T12:28:26.477Z,26.52
2022-08-17T12:30:53.648Z,24.33
2022-08-17T12:33:28.435Z,25.90
2022-08-17T12:36:05.831Z,25.42
2022-08-17T12:38:36.182Z,26.00
2022-08-17T12:41:24.741Z,28.83
2022-08-17T12:44:12.294Z,26.88
2022-08-17T12:46:56.210Z,25.52
2022-08-17T12:49:30.942Z,25.95
2022-08-17T12:52:05.742Z,28.08
2022-08-17T12:54:41.360Z,31.88
2022-08-17T12:57:42.053Z,29.88
2022-08-17T13:00:12.493Z,30.23
2022-08-17T13:02:44.825Z,28.67
2022-08-17T13:05:25.013Z,30.35
2022-08-17T13:07:53.389Z,28.58
2022-08-17T13:10:34.264Z,34.35
2022-08-17T13:13:23.687Z,33.03
2022-08-17T13:16:09.487Z,33.88
2022-08-17T13:18:42.035Z,32.38
2022-08-17T13:21:23.840Z,36.50
2022-08-17T13:24:13.801Z,34.75
2022-08-17T13:26:48.638Z,35.17
2022-08-17T13:29:51.219Z,31.70
2022-08-17T13:32:33.866Z,31.88
2022-08-17T13:35:14.993Z,31.08
2022-08-17T13:38:01.333Z,37.72
2022-08-17T13:40:37.955Z,30.75
2022-08-17T13:43:05.353Z,38.28
2022-08-17T13:45:44.088Z,35.33
2022-08-17T13:48:28.168Z,31.52
2022-08-17T13:50:55.049Z,35.55
2022-08-17T13:53:24.898Z,38.78
2022-08-17T13:55:59.773Z,27.25
2022-08-17T13:58:30.799Z,36.00
2022-08-17T14:00:57.917Z,28.27
2022-08-17T14:03:25.196Z,37.85
2022-08-17T14:05:52.791Z,34.58
2022-08-17T14:08:20.798Z,30.70
2022-08-17T14:10:58.424Z,31.27
2022-08-17T14:13:25.271Z,30.65
2022-08-17T14:15:55.428Z,32.42
2022-08-17T14:18:42.042Z,33.40
2022-08-17T14:21:10.639Z,28.33
2022-08-17T14:23:37.667Z,31.88
2022-08-17T14:26:05.264Z,34.50
2022-08-17T14:28:32.187Z,26.08
2022-08-17T14:31:00.758Z,29.60
2022-08-17T14:33:29.353Z,31.80
2022-08-17T14:35:57.610Z,33.95
2022-08-17T14:38:24.748Z,29.77
2022-08-17T14:40:52.172Z,32.22
2022-08-17T14:43:20.873Z,32.08
2022-08-17T14:45:47.731Z,32.50
2022-08-17T14:48:14.658Z,29.52
2022-08-17T14:50:42.994Z,17.95
2022-08-17T14:53:12.725Z,8.55
2022-08-17T14:55:40.800Z,8.13
2022-08-17T14:58:09.160Z,8.27
2022-08-17T15:00:36.824Z,7.63
2022-08-17T15:03:03.995Z,6.35
2022-08-17T15:05:33.924Z,8.07
2022-08-17T15:08:02.210Z,11.02
2022-08-17T15:10:30.275Z,6.72
2022-08-17T15:12:57.820Z,6.23
2022-08-17T15:15:25.189Z,5.90
2022-08-17T15:17:52.631Z,5.25
2022-08-17T15:20:28.026Z,5.05
2022-08-17T15:22:56.190Z,5.93
2022-08-17T15:25:25.638Z,6.93
2022-08-17T15:27:52.886Z,9.10
2022-08-17T15:30:20.641Z,8.05
2022-08-17T15:32:54.361Z,6.75
2022-08-17T15:35:28.005Z,5.47
2022-08-17T15:38:07.995Z,5.30
2022-08-17T15:40:40.263Z,4.95
2022-08-17T15:43:11.376Z,5.60
2022-08-17T15:45:39.499Z,4.90
2022-08-17T15:48:06.435Z,5.00
2022-08-17T15:50:33.307Z,5.15
2022-08-17T15:53:01.607Z,4.88
2022-08-17T15:55:30.294Z,4.63
2022-08-17T15:57:57.272Z,4.88
2022-08-17T16:00:24.612Z,4.22
2022-08-17T16:03:45.757Z,5.00
2022-08-17T16:05:40.831Z,5.43
2022-08-17T16:08:08.098Z,5.35
2022-08-17T16:10:36.168Z,5.10
2022-08-17T16:13:04.274Z,5.55
2022-08-17T16:15:31.964Z,5.73
2022-08-17T16:17:59.452Z,6.30
2022-08-17T16:20:26.551Z,5.88
2022-08-17T16:22:54.185Z,5.60
2022-08-17T16:25:47.218Z,5.65
2022-08-17T16:28:15.967Z,5.97
2022-08-17T16:30:43.347Z,5.68
2022-08-17T16:33:15.086Z,6.60
2022-08-17T16:35:42.150Z,6.18
2022-08-17T16:38:09.491Z,6.40
2022-08-17T16:40:38.080Z,6.32
2022-08-17T16:43:10.438Z,5.80
2022-08-17T16:45:40.501Z,6.20
2022-08-17T16:48:09.486Z,6.03
2022-08-17T16:50:37.101Z,5.60
2022-08-17T16:53:06.845Z,5.30
2022-08-17T16:55:35.736Z,5.60
2022-08-17T16:58:08.738Z,5.32
2022-08-17T17:00:36.191Z,5.63
2022-08-17T17:03:33.651Z,6.03
2022-08-17T17:06:14.140Z,6.03
2022-08-17T17:09:06.236Z,6.18
2022-08-17T17:11:52.620Z,5.78
2022-08-17T17:14:43.043Z,5.57
2022-08-17T17:17:24.566Z,5.95
2022-08-17T17:20:02.791Z,5.13
2022-08-17T17:22:38.767Z,5.57
2022-08-17T17:25:15.452Z,5.20
2022-08-17T17:28:09.872Z,6.07
2022-08-17T17:31:05.715Z,6.13
2022-08-17T17:33:52.952Z,5.35
2022-08-17T17:36:32.976Z,7.07
2022-08-17T17:39:18.857Z,5.57
2022-08-17T17:41:59.261Z,4.88
2022-08-17T17:44:35.046Z,5.43
2022-08-17T17:47:03.721Z,5.97
2022-08-17T17:49:35.536Z,5.18
2022-08-17T17:52:13.387Z,5.38
2022-08-17T17:54:42.566Z,5.28
2022-08-17T17:57:21.345Z,5.40
2022-08-17T18:00:12.454Z,5.40
2022-08-17T18:02:58.946Z,5.43
2022-08-17T18:05:56.763Z,5.05
2022-08-17T18:08:36.179Z,4.78
2022-08-17T18:11:34.794Z,5.40
2022-08-17T18:14:24.182Z,5.13
2022-08-17T18:16:57.751Z,5.28
2022-08-17T18:19:28.087Z,6.18
2022-08-17T18:22:07.993Z,5.82
2022-08-17T18:24:44.699Z,5.10
2022-08-17T18:27:38.430Z,5.40
2022-08-17T18:30:14.470Z,5.32
2022-08-17T18:32:43.606Z,6.30
2022-08-17T18:35:16.390Z,6.28
2022-08-17T18:37:46.800Z,6.30
2022-08-17T18:40:16.938Z,7.00
2022-08-17T18:43:06.885Z,7.38
2022-08-17T18:45:33.850Z,8.30
2022-08-17T18:48:01.814Z,7.40
2022-08-17T18:50:43.671Z,5.82
2022-08-17T18:53:30.351Z,6.75
2022-08-17T18:56:34.360Z,8.77
2022-08-17T18:59:28.198Z,9.90
2022-08-17T19:02:38.624Z,8.77
2022-08-17T19:05:28.578Z,8.00
2022-08-17T19:08:34.279Z,9.00
2022-08-17T19:11:21.329Z,9.82
2022-08-17T19:14:00.867Z,10.75
2022-08-17T19:16:45.871Z,9.85
2022-08-17T19:19:23.538Z,9.63
2022-08-17T19:22:27.771Z,8.20
2022-08-17T19:25:06.005Z,8.60
2022-08-17T19:27:49.234Z,8.95
2022-08-17T19:30:17.492Z,7.80
2022-08-17T19:32:44.296Z,8.38
2022-08-17T19:35:17.326Z,7.72
2022-08-17T19:38:08.073Z,8.18
2022-08-17T19:41:00.742Z,8.60
2022-08-17T19:43:54.514Z,7.78
2022-08-17T19:46:56.167Z,9.18
2022-08-17T19:49:46.641Z,8.57
2022-08-17T19:52:37.577Z,9.75
2022-08-17T19:55:23.105Z,9.80
2022-08-17T19:58:25.316Z,10.38
2022-08-17T20:00:54.278Z,9.68
2022-08-17T20:03:53.324Z,12.25
2022-08-17T20:06:22.179Z,13.27
2022-08-17T20:09:15.404Z,13.23
2022-08-17T20:11:54.868Z,14.90
2022-08-17T20:14:30.879Z,15.00
2022-08-17T20:17:02.359Z,10.40
2022-08-17T20:19:52.091Z,12.48
2022-08-17T20:22:54.230Z,10.13
2022-08-17T20:25:28.137Z,17.20
2022-08-17T20:28:06.871Z,18.83
2022-08-17T20:30:37.632Z,18.77
2022-08-17T20:33:08.336Z,13.20
2022-08-17T20:35:40.493Z,15.00
2022-08-17T20:38:14.356Z,20.38
2022-08-17T20:41:04.023Z,20.05
2022-08-17T20:43:33.598Z,14.00
2022-08-17T20:46:12.455Z,15.75
2022-08-17T20:48:43.864Z,14.70
2022-08-17T20:51:34.678Z,14.75
2022-08-17T20:56:53.718Z,14.35
2022-08-17T20:59:27.567Z,15.60
2022-08-17T21:02:22.868Z,15.50
2022-08-17T21:04:56.423Z,18.27
2022-08-17T21:07:30.917Z,21.02
2022-08-17T21:10:29.277Z,21.10
2022-08-17T21:13:25.381Z,15.43
2022-08-17T21:15:58.932Z,17.25
2022-08-17T21:18:38.859Z,16.20
2022-08-17T21:21:34.357Z,19.98
2022-08-17T21:24:13.245Z,17.75
2022-08-17T21:27:08.355Z,17.98
2022-08-17T21:30:11.789Z,18.10
2022-08-17T21:32:42.173Z,16.58
2022-08-17T21:35:23.386Z,19.10
2022-08-17T21:38:02.919Z,21.25
2022-08-17T21:40:31.776Z,18.33
2022-08-17T21:43:16.911Z,17.92
2022-08-17T21:45:53.783Z,19.15
2022-08-17T21:48:24.517Z,17.08
2022-08-17T21:50:57.792Z,14.75
2022-08-17T21:53:46.669Z,15.00
2022-08-17T21:56:40.320Z,18.55
2022-08-17T21:59:24.398Z,18.45
2022-08-17T22:02:03.651Z,17.63
2022-08-17T22:04:39.675Z,16.80
2022-08-17T22:07:13.200Z,16.55
2022-08-17T22:09:49.076Z,19.90
2022-08-17T22:12:17.259Z,21.05
2022-08-17T22:14:52.847Z,17.53
2022-08-17T22:17:29.732Z,15.43
2022-08-17T22:20:10.485Z,15.27
2022-08-17T22:23:04.950Z,14.27
2022-08-17T22:25:41.592Z,16.42
2022-08-17T22:28:10.924Z,18.65
2022-08-17T22:30:41.075Z,18.05
2022-08-17T22:33:36.947Z,11.23
2022-08-17T22:36:23.034Z,17.15
2022-08-17T22:39:00.619Z,16.92
2022-08-17T22:41:40.554Z,17.40
2022-08-17T22:44:37.662Z,16.02
2022-08-17T22:47:38.753Z,16.23
2022-08-17T22:50:14.237Z,16.27
2022-08-17T22:53:03.230Z,15.75
2022-08-17T22:55:52.437Z,15.63
2022-08-17T22:58:42.920Z,16.35
2022-08-17T23:01:23.616Z,18.63
2022-08-17T23:04:05.942Z,18.27
2022-08-17T23:06:39.499Z,16.33
2022-08-17T23:09:11.929Z,15.95
2022-08-17T23:11:49.062Z,16.75
2022-08-17T23:14:19.178Z,19.65
2022-08-17T23:16:47.331Z,17.27
2022-08-17T23:19:17.605Z,12.70
2022-08-17T23:21:45.178Z,16.30
2022-08-17T23:24:17.039Z,15.07
2022-08-17T23:26:43.910Z,15.05
2022-08-17T23:29:10.901Z,15.25
2022-08-17T23:31:38.697Z,14.82
2022-08-17T23:34:10.093Z,16.15
2022-08-17T23:36:37.139Z,14.73
2022-08-17T23:39:04.967Z,12.35
2022-08-17T23:41:35.396Z,15.55
2022-08-17T23:44:04.383Z,14.68
2022-08-17T23:46:31.338Z,12.40
2022-08-17T23:48:59.544Z,14.18
2022-08-17T23:51:37.113Z,13.47
2022-08-17T23:54:27.927Z,10.88
2022-08-17T23:56:55.057Z,16.60
2022-08-17T23:59:23.026Z,13.18
